createdAt,value
2022-08-04T10:24:19.287Z,36.17
2022-08-04T10:25:44.416Z,36.12
2022-08-04T10:26:19.252Z,35.99
2022-08-04T10:27:19.455Z,35.90
2022-08-04T10:28:19.227Z,35.62
2022-08-04T10:29:19.223Z,35.45
2022-08-04T10:30:19.230Z,35.38
2022-08-04T10:31:19.201Z,35.50
2022-08-04T10:32:19.208Z,35.66
2022-08-04T10:33:19.183Z,35.87
2022-08-04T10:34:19.184Z,36.17
2022-08-04T10:35:19.183Z,36.39
2022-08-04T10:36:19.170Z,36.59
2022-08-04T10:37:19.365Z,36.62
2022-08-04T10:38:28.448Z,36.59
2022-08-04T10:39:43.023Z,36.72
2022-08-04T10:40:19.127Z,36.83
2022-08-04T10:41:19.122Z,36.85
2022-08-04T10:42:19.139Z,36.71
2022-08-04T10:43:20.479Z,36.69
2022-08-04T10:44:19.114Z,36.57
2022-08-04T10:45:19.091Z,36.50
2022-08-04T10:46:19.081Z,36.35
2022-08-04T10:47:19.199Z,36.28
2022-08-04T10:48:19.067Z,36.17
2022-08-04T10:49:19.058Z,36.39
2022-08-04T10:50:19.052Z,36.27
2022-08-04T10:51:19.044Z,36.01
2022-08-04T10:52:19.057Z,36.05
2022-08-04T10:53:19.030Z,36.03
2022-08-04T10:54:19.025Z,36.03
2022-08-04T10:55:19.019Z,36.34
2022-08-04T10:56:19.005Z,36.65
2022-08-04T10:57:19.124Z,36.83
2022-08-04T10:58:18.990Z,36.91
2022-08-04T10:59:18.984Z,36.99
2022-08-04T11:00:18.977Z,37.15
2022-08-04T11:01:59.924Z,37.13
2022-08-04T11:02:18.989Z,36.90
2022-08-04T11:03:18.996Z,36.98
2022-08-04T11:04:27.193Z,37.13
2022-08-04T11:05:18.950Z,36.81
2022-08-04T11:06:18.935Z,37.02
2022-08-04T11:07:18.986Z,37.17
2022-08-04T11:08:20.677Z,37.06
2022-08-04T11:09:18.937Z,37.12
2022-08-04T11:10:18.920Z,37.13
2022-08-04T11:11:18.913Z,37.18
2022-08-04T11:12:18.916Z,36.98
2022-08-04T11:13:22.095Z,36.93
2022-08-04T11:14:18.879Z,36.72
2022-08-04T11:15:18.872Z,36.59
2022-08-04T11:16:18.865Z,36.65
2022-08-04T11:17:19.001Z,36.59
2022-08-04T11:18:18.862Z,36.93
2022-08-04T11:19:18.852Z,36.90
2022-08-04T11:20:34.487Z,37.20
2022-08-04T11:21:18.843Z,37.86
2022-08-04T11:22:18.852Z,37.55
2022-08-04T11:23:18.818Z,37.50
2022-08-04T11:24:18.821Z,37.89
2022-08-04T11:25:18.817Z,38.04
2022-08-04T11:26:18.806Z,37.97
2022-08-04T11:27:18.893Z,37.88
2022-08-04T11:28:18.795Z,37.67
2022-08-04T11:29:18.779Z,37.60
2022-08-04T11:30:18.772Z,37.74
2022-08-04T11:31:18.766Z,38.11
2022-08-04T11:32:18.770Z,38.53
2022-08-04T11:33:18.758Z,38.37
2022-08-04T11:34:18.786Z,38.60
2022-08-04T11:35:18.739Z,38.76
2022-08-04T11:36:18.740Z,38.63
2022-08-04T11:37:18.738Z,38.42
2022-08-04T11:38:18.732Z,38.11
2022-08-04T11:39:18.766Z,38.57
2022-08-04T11:40:18.717Z,38.50
2022-08-04T11:41:18.755Z,38.26
2022-08-04T11:42:18.715Z,37.96
2022-08-04T11:43:18.718Z,38.06
2022-08-04T11:44:18.681Z,37.84
2022-08-04T11:45:18.687Z,38.00
2022-08-04T11:46:18.668Z,37.85
2022-08-04T11:47:18.693Z,38.46
2022-08-04T11:48:18.667Z,38.26
2022-08-04T11:49:18.651Z,38.61
2022-08-04T11:50:18.643Z,38.15
2022-08-04T11:51:18.648Z,38.28
2022-08-04T11:52:18.654Z,38.57
2022-08-04T11:53:18.685Z,37.79
2022-08-04T11:54:18.629Z,37.31
2022-08-04T11:55:18.624Z,36.88
2022-08-04T11:56:37.039Z,36.87
2022-08-04T11:57:18.628Z,36.69
2022-08-04T11:58:18.605Z,36.62
2022-08-04T11:59:18.613Z,36.47
2022-08-04T12:00:18.600Z,36.29
2022-08-04T12:01:21.883Z,36.49
2022-08-04T12:02:21.180Z,36.51
2022-08-04T12:03:18.573Z,36.51
2022-08-04T12:04:18.563Z,36.34
2022-08-04T12:05:32.855Z,36.07
2022-08-04T12:06:18.545Z,35.89
2022-08-04T13:19:25.861Z,33.78
2022-08-04T13:20:25.849Z,33.61
2022-08-04T13:21:49.489Z,33.76
2022-08-04T13:22:26.586Z,33.72
2022-08-04T13:23:25.819Z,34.24
2022-08-04T13:24:31.894Z,34.39
2022-08-04T13:26:42.869Z,34.10
2022-08-04T13:26:43.389Z,34.13
2022-08-04T13:27:25.799Z,33.82
2022-08-04T13:28:25.783Z,33.93
2022-08-04T13:29:58.141Z,34.02
2022-08-04T13:30:25.961Z,34.03
2022-08-04T13:31:25.741Z,34.43
2022-08-04T13:32:25.753Z,34.59
2022-08-04T13:33:25.726Z,34.47
2022-08-04T13:34:25.728Z,34.47
2022-08-04T13:35:30.582Z,34.65
2022-08-04T13:36:25.709Z,35.09
2022-08-04T13:37:26.228Z,35.55
2022-08-04T13:38:25.694Z,35.22
2022-08-04T13:39:25.759Z,35.26
2022-08-04T13:40:25.667Z,35.18
2022-08-04T13:41:30.535Z,34.77
2022-08-04T13:42:25.762Z,34.58
2022-08-04T13:44:16.174Z,34.31
2022-08-04T13:44:25.636Z,34.02
2022-08-04T13:45:34.846Z,33.94
2022-08-04T13:46:27.036Z,33.90
2022-08-04T13:47:25.765Z,34.09
2022-08-04T13:48:32.433Z,33.98
2022-08-04T13:49:48.567Z,33.90
2022-08-04T13:50:25.590Z,33.76
2022-08-04T13:51:25.605Z,33.78
2022-08-04T13:52:25.582Z,33.73
2022-08-04T13:53:30.757Z,33.72
2022-08-04T13:54:25.569Z,33.95
2022-08-04T13:55:25.566Z,34.12
2022-08-04T13:56:25.551Z,34.72
2022-08-04T13:57:25.779Z,35.52
2022-08-04T13:58:25.537Z,35.45
2022-08-04T13:59:25.523Z,35.78
2022-08-04T14:00:29.123Z,35.75
2022-08-04T14:01:35.634Z,35.37
2022-08-04T14:02:25.512Z,35.25
2022-08-04T14:03:25.511Z,34.87
2022-08-04T14:04:25.497Z,34.80
2022-08-04T14:05:28.076Z,35.03
2022-08-04T14:06:25.479Z,34.66
2022-08-04T14:07:25.461Z,34.35
2022-08-04T14:08:25.470Z,34.97
2022-08-04T14:09:35.252Z,35.41
2022-08-04T14:10:25.452Z,35.78
2022-08-04T14:12:06.164Z,35.93
2022-08-04T14:12:38.266Z,36.62
2022-08-04T14:13:25.495Z,36.17
2022-08-04T14:14:25.418Z,36.20
2022-08-04T14:15:25.407Z,36.05
2022-08-04T14:16:25.414Z,36.51
2022-08-04T14:17:30.579Z,37.00
2022-08-04T14:18:25.436Z,37.79
2022-08-04T14:19:29.306Z,36.98
2022-08-04T14:20:25.389Z,37.27
2022-08-04T14:21:25.387Z,36.66
2022-08-04T14:22:25.379Z,36.49
2022-08-04T14:23:31.806Z,36.73
2022-08-04T14:24:25.372Z,37.03
2022-08-04T14:25:30.058Z,36.80
2022-08-04T14:26:31.507Z,35.77
2022-08-04T14:27:25.431Z,35.55
2022-08-04T14:28:41.179Z,35.93
2022-08-04T14:29:28.994Z,36.17
2022-08-04T14:30:25.343Z,36.23
2022-08-04T14:31:29.112Z,36.57
2022-08-04T14:32:26.431Z,36.68
2022-08-04T14:34:03.961Z,37.21
2022-08-04T14:34:25.316Z,38.06
2022-08-04T14:35:26.504Z,38.16
2022-08-04T14:36:25.415Z,36.90
2022-08-04T14:37:25.299Z,36.22
2022-08-04T14:38:25.327Z,36.90
2022-08-04T14:39:25.320Z,37.29
2022-08-04T14:40:30.863Z,37.51
2022-08-04T14:41:25.294Z,36.95
2022-08-04T14:42:25.283Z,36.88
2022-08-04T14:43:25.295Z,36.80
2022-08-04T14:44:25.275Z,36.62
2022-08-04T14:45:25.304Z,36.60
2022-08-04T14:46:30.324Z,36.87
2022-08-04T14:47:25.265Z,37.22
2022-08-04T14:48:25.279Z,37.00
2022-08-04T14:49:25.266Z,36.47
2022-08-04T14:50:25.256Z,36.31
2022-08-04T14:51:26.263Z,36.62
2022-08-04T14:52:25.385Z,36.71
2022-08-04T14:53:25.271Z,36.56
2022-08-04T14:54:25.245Z,36.32
2022-08-04T14:55:25.252Z,36.32
2022-08-04T14:56:46.157Z,36.15
2022-08-04T14:57:25.242Z,36.99
2022-08-04T14:58:35.425Z,36.59
2022-08-04T14:59:25.228Z,36.72
2022-08-04T15:00:25.234Z,37.03
2022-08-04T15:01:25.261Z,37.34
2022-08-04T15:02:25.583Z,36.60
2022-08-04T15:03:25.225Z,36.75
2022-08-04T15:04:25.220Z,36.88
2022-08-04T15:06:02.473Z,36.88
2022-08-04T15:06:25.216Z,36.46
2022-08-04T15:07:25.202Z,35.58
2022-08-04T15:08:30.871Z,35.11
2022-08-04T15:21:10.609Z,34.05
2022-08-04T15:22:17.551Z,33.94
2022-08-04T15:23:11.083Z,34.12
2022-08-04T15:24:10.603Z,33.84
2022-08-04T15:25:11.855Z,33.98
2022-08-04T15:26:10.595Z,33.97
2022-08-04T15:27:10.569Z,34.13
2022-08-04T15:28:10.566Z,34.42
2022-08-04T15:51:34.236Z,33.97
